sensor_id;sensor_type;location;lat;lon;timestamp;temperature;humidity
32728;DHT22;55292;51.844;19.246;2022-11-20T00:01:50;-2.80;99.90
32728;DHT22;55292;51.844;19.246;2022-11-20T00:06:54;-2.90;99.90
32728;DHT22;55292;51.844;19.246;2022-11-20T00:11:56;-2.80;99.90
32728;DHT22;55292;51.844;19.246;2022-11-20T00:16:59;-2.70;99.90
32728;DHT22;55292;51.844;19.246;2022-11-20T00:22:01;-1.80;99.90
32728;DHT22;55292;51.844;19.246;2022-11-20T00:27:04;-2.70;99.90
32728;DHT22;55292;51.844;19.246;2022-11-20T00:32:06;-2.10;99.90
32728;DHT22;55292;51.844;19.246;2022-11-20T00:37:09;-2.70;99.90
32728;DHT22;55292;51.844;19.246;2022-11-20T00:42:12;-2.70;99.90
32728;DHT22;55292;51.844;19.246;2022-11-20T00:47:14;-2.50;99.90
32728;DHT22;55292;51.844;19.246;2022-11-20T00:52:17;-2.50;99.90
32728;DHT22;55292;51.844;19.246;2022-11-20T00:57:20;-2.40;99.90
32728;DHT22;55292;51.844;19.246;2022-11-20T01:02:22;-2.30;99.90
32728;DHT22;55292;51.844;19.246;2022-11-20T01:07:25;-2.30;99.90
32728;DHT22;55292;51.844;19.246;2022-11-20T01:12:27;-2.10;99.90
32728;DHT22;55292;51.844;19.246;2022-11-20T01:17:31;-2.20;99.90
32728;DHT22;55292;51.844;19.246;2022-11-20T01:22:34;-2.30;99.90
32728;DHT22;55292;51.844;19.246;2022-11-20T01:27:36;-2.30;99.90
32728;DHT22;55292;51.844;19.246;2022-11-20T01:32:39;-2.20;99.90
32728;DHT22;55292;51.844;19.246;2022-11-20T01:37:41;-2.40;99.90
32728;DHT22;55292;51.844;19.246;2022-11-20T01:42:53;-2.30;99.90
32728;DHT22;55292;51.844;19.246;2022-11-20T01:48:21;-2.40;99.90
32728;DHT22;55292;51.844;19.246;2022-11-20T01:53:29;-2.40;99.90
32728;DHT22;55292;51.844;19.246;2022-11-20T01:58:36;-2.40;99.90
32728;DHT22;55292;51.844;19.246;2022-11-20T02:03:39;-2.40;99.90
32728;DHT22;55292;51.844;19.246;2022-11-20T02:08:42;-2.20;99.90
32728;DHT22;55292;51.844;19.246;2022-11-20T02:13:45;-2.30;99.90
32728;DHT22;55292;51.844;19.246;2022-11-20T02:18:49;-2.20;99.90
32728;DHT22;55292;51.844;19.246;2022-11-20T02:24:07;-2.20;99.90
32728;DHT22;55292;51.844;19.246;2022-11-20T02:29:10;-2.20;99.90
32728;DHT22;55292;51.844;19.246;2022-11-20T02:34:13;-2.20;99.90
32728;DHT22;55292;51.844;19.246;2022-11-20T02:39:16;-2.20;99.90
32728;DHT22;55292;51.844;19.246;2022-11-20T02:44:21;-2.20;99.90
32728;DHT22;55292;51.844;19.246;2022-11-20T02:49:24;-2.20;99.90
32728;DHT22;55292;51.844;19.246;2022-11-20T02:54:27;-2.20;99.90
32728;DHT22;55292;51.844;19.246;2022-11-20T02:59:29;-2.10;99.90
32728;DHT22;55292;51.844;19.246;2022-11-20T03:04:32;-2.20;99.90
32728;DHT22;55292;51.844;19.246;2022-11-20T03:09:34;-2.20;99.90
32728;DHT22;55292;51.844;19.246;2022-11-20T03:14:37;-2.20;99.90
32728;DHT22;55292;51.844;19.246;2022-11-20T03:19:40;-2.20;99.90
32728;DHT22;55292;51.844;19.246;2022-11-20T03:24:42;-2.30;99.90
32728;DHT22;55292;51.844;19.246;2022-11-20T03:29:45;-2.10;99.90
32728;DHT22;55292;51.844;19.246;2022-11-20T03:34:50;-2.20;99.90
32728;DHT22;55292;51.844;19.246;2022-11-20T03:39:52;-2.20;99.90
32728;DHT22;55292;51.844;19.246;2022-11-20T03:44:55;-2.40;99.90
32728;DHT22;55292;51.844;19.246;2022-11-20T03:49:57;-2.70;99.90
32728;DHT22;55292;51.844;19.246;2022-11-20T03:55:00;-2.90;99.90
32728;DHT22;55292;51.844;19.246;2022-11-20T04:00:04;-2.10;99.90
32728;DHT22;55292;51.844;19.246;2022-11-20T04:05:06;-3.30;99.90
32728;DHT22;55292;51.844;19.246;2022-11-20T04:10:09;-3.60;99.90
32728;DHT22;55292;51.844;19.246;2022-11-20T04:15:12;-3.60;99.90
32728;DHT22;55292;51.844;19.246;2022-11-20T04:20:14;-3.90;99.90
32728;DHT22;55292;51.844;19.246;2022-11-20T04:25:17;-4.20;99.90
32728;DHT22;55292;51.844;19.246;2022-11-20T04:30:19;-4.40;99.90
32728;DHT22;55292;51.844;19.246;2022-11-20T04:35:22;-2.20;99.90
32728;DHT22;55292;51.844;19.246;2022-11-20T04:40:25;-2.20;99.90
32728;DHT22;55292;51.844;19.246;2022-11-20T04:45:27;-4.80;99.90
32728;DHT22;55292;51.844;19.246;2022-11-20T04:50:30;-3.90;99.90
32728;DHT22;55292;51.844;19.246;2022-11-20T04:55:32;-4.90;99.90
32728;DHT22;55292;51.844;19.246;2022-11-20T05:00:35;-2.50;99.90
32728;DHT22;55292;51.844;19.246;2022-11-20T05:05:38;-5.30;99.90
32728;DHT22;55292;51.844;19.246;2022-11-20T05:10:40;-5.40;99.90
32728;DHT22;55292;51.844;19.246;2022-11-20T05:15:43;-2.90;99.90
32728;DHT22;55292;51.844;19.246;2022-11-20T05:20:45;-5.40;99.90
32728;DHT22;55292;51.844;19.246;2022-11-20T05:25:48;-5.40;99.90
32728;DHT22;55292;51.844;19.246;2022-11-20T05:30:56;-5.40;99.90
32728;DHT22;55292;51.844;19.246;2022-11-20T05:35:58;-5.50;99.90
32728;DHT22;55292;51.844;19.246;2022-11-20T05:41:10;-5.70;99.90
32728;DHT22;55292;51.844;19.246;2022-11-20T05:46:15;-5.70;99.90
32728;DHT22;55292;51.844;19.246;2022-11-20T05:51:19;-6.30;99.90
32728;DHT22;55292;51.844;19.246;2022-11-20T05:56:22;-5.50;99.90
32728;DHT22;55292;51.844;19.246;2022-11-20T06:01:25;-5.50;99.90
32728;DHT22;55292;51.844;19.246;2022-11-20T06:06:28;-2.30;99.90
32728;DHT22;55292;51.844;19.246;2022-11-20T06:11:31;-4.90;99.90
32728;DHT22;55292;51.844;19.246;2022-11-20T06:16:33;-4.50;99.90
32728;DHT22;55292;51.844;19.246;2022-11-20T06:21:36;-4.40;99.90
32728;DHT22;55292;51.844;19.246;2022-11-20T06:26:38;-4.10;99.90
32728;DHT22;55292;51.844;19.246;2022-11-20T06:31:41;-4.00;99.90
32728;DHT22;55292;51.844;19.246;2022-11-20T06:36:44;-3.90;99.90
32728;DHT22;55292;51.844;19.246;2022-11-20T06:41:47;-3.50;99.90
32728;DHT22;55292;51.844;19.246;2022-11-20T06:46:49;-3.60;99.90
32728;DHT22;55292;51.844;19.246;2022-11-20T06:51:52;-3.60;99.90
32728;DHT22;55292;51.844;19.246;2022-11-20T06:56:54;-3.50;99.90
32728;DHT22;55292;51.844;19.246;2022-11-20T07:01:57;-1.90;99.90
32728;DHT22;55292;51.844;19.246;2022-11-20T07:06:59;-3.00;99.90
32728;DHT22;55292;51.844;19.246;2022-11-20T07:12:02;-2.20;99.90
32728;DHT22;55292;51.844;19.246;2022-11-20T07:17:05;-2.90;99.90
32728;DHT22;55292;51.844;19.246;2022-11-20T07:22:07;-2.90;99.90
32728;DHT22;55292;51.844;19.246;2022-11-20T07:27:10;-2.50;99.90
32728;DHT22;55292;51.844;19.246;2022-11-20T07:32:13;-2.80;99.90
32728;DHT22;55292;51.844;19.246;2022-11-20T07:37:16;-2.60;99.90
32728;DHT22;55292;51.844;19.246;2022-11-20T07:42:18;-2.70;99.90
32728;DHT22;55292;51.844;19.246;2022-11-20T07:47:24;-2.40;99.90
32728;DHT22;55292;51.844;19.246;2022-11-20T07:52:27;-2.20;99.90
32728;DHT22;55292;51.844;19.246;2022-11-20T07:57:31;-1.90;99.90
32728;DHT22;55292;51.844;19.246;2022-11-20T08:02:33;-1.60;99.90
32728;DHT22;55292;51.844;19.246;2022-11-20T08:07:39;-1.30;99.90
